Andover, Vermont
Current Conditions -  °F | °C
As of 10:54 PM on Sunday 21 Dec 2014 (Local Time) from KVSF Reporting Station
Haze Haze  
Wind Chill: 29°   Ceiling: 4100
Heat Index: 29°   Visibility: 6mi
Dew Point: 27°   Wind: 0mph
Humidity: 92%   Direction: NA
Pressure: 30.36"   Gusts: NA
Location:  43.2811°N, 72.6352°W
Report Text: KVSF 220354Z AUTO 00000KT 6SM BR FEW025 OVC041 M02/M03 A3036 RMK AO2 SLP289 T10171028 TSNO
Loading
Personal Weather Stations






























Interactive Weather Map New forecast layout! Learn more

10-Day Weather Forecast

Advertisements
Track Severe Weather on mobile